Time;durP1;ratioP1;P1;durP2;ratioP2;P2;SDS_P1;SDS_P2;PMS_P1;PMS_P2;Temp;Humidity;BMP_temperature;BMP_pressure;BME280_temperature;BME280_humidity;BME280_pressure;Samples;Min_cycle;Max_cycle;Signal;HPM_P1;HPM_P2
2023/12/03 00:01:29;;;;;;;6.78;2.42;;;1.20;99.90;;;;;;5097306;27;20039;-65
2023/12/03 00:03:54;;;;;;;4.70;1.80;;;1.30;99.90;;;;;;5115361;27;20046;-65
2023/12/03 00:06:20;;;;;;;5.28;2.35;;;1.30;99.90;;;;;;5114805;27;20051;-65
2023/12/03 00:08:46;;;;;;;5.68;2.10;;;1.20;99.90;;;;;;5114188;27;20039;-65
2023/12/03 00:11:11;;;;;;;6.15;2.35;;;1.20;99.90;;;;;;5114974;27;20119;-65
2023/12/03 00:13:37;;;;;;;6.50;2.17;;;1.20;99.90;;;;;;5114903;27;20070;-65
2023/12/03 00:16:04;;;;;;;4.82;2.00;;;1.20;99.90;;;;;;5132695;27;20032;-65
2023/12/03 00:18:29;;;;;;;4.35;1.38;;;1.20;99.90;;;;;;5097669;27;20384;-66
2023/12/03 00:20:55;;;;;;;4.18;1.35;;;1.20;99.90;;;;;;5114939;27;20046;-65
2023/12/03 00:23:21;;;;;;;4.28;1.70;;;1.30;99.90;;;;;;5113888;27;20117;-65
2023/12/03 00:25:46;;;;;;;4.20;1.50;;;1.30;99.90;;;;;;5114536;28;20039;-65
2023/12/03 00:28:12;;;;;;;4.80;1.42;;;1.40;99.90;;;;;;5114825;27;20039;-65
2023/12/03 00:30:37;;;;;;;3.47;1.30;;;1.40;99.90;;;;;;5097113;28;20046;-65
2023/12/03 00:33:03;;;;;;;4.10;1.70;;;1.40;99.90;;;;;;5114967;28;20043;-65
2023/12/03 00:35:29;;;;;;;3.22;1.30;;;1.50;99.90;;;;;;5114424;28;20038;-65
2023/12/03 00:37:55;;;;;;;4.50;1.90;;;1.30;99.90;;;;;;5097108;28;20432;-65
2023/12/03 00:40:20;;;;;;;3.55;1.27;;;1.40;99.90;;;;;;5114406;28;20051;-65
2023/12/03 00:42:46;;;;;;;2.90;1.23;;;1.50;99.90;;;;;;5114473;28;20050;-65
2023/12/03 00:45:12;;;;;;;3.70;1.63;;;1.30;99.90;;;;;;5132066;28;20168;-65
2023/12/03 00:47:37;;;;;;;5.45;1.63;;;1.50;99.90;;;;;;5114246;28;20047;-65
2023/12/03 00:50:03;;;;;;;6.00;1.65;;;1.40;99.90;;;;;;5113764;28;20049;-65
2023/12/03 00:52:29;;;;;;;5.35;1.75;;;1.50;99.90;;;;;;5114297;28;20036;-65
2023/12/03 00:54:55;;;;;;;4.32;2.05;;;1.40;99.90;;;;;;5116834;27;20411;-65
2023/12/03 00:57:20;;;;;;;3.53;1.40;;;1.50;99.90;;;;;;5117575;27;20054;-65
2023/12/03 00:59:46;;;;;;;3.42;1.35;;;1.50;99.90;;;;;;5136914;27;20043;-65
2023/12/03 01:02:12;;;;;;;3.10;1.30;;;1.40;99.90;;;;;;5118504;27;20109;-65
2023/12/03 01:04:37;;;;;;;4.47;1.83;;;1.50;99.90;;;;;;5100639;27;20035;-65
2023/12/03 01:07:03;;;;;;;4.30;1.85;;;1.50;99.90;;;;;;5118593;27;20082;-65
2023/12/03 01:09:30;;;;;;;3.55;1.50;;;1.50;99.90;;;;;;5118193;27;20066;-65
2023/12/03 01:11:57;;;;;;;7.13;2.08;;;1.40;99.90;;;;;;5117438;27;20039;-65
2023/12/03 01:14:23;;;;;;;7.80;2.47;;;1.40;99.90;;;;;;5118219;27;20056;-65
2023/12/03 01:16:49;;;;;;;4.45;1.70;;;1.30;99.90;;;;;;5118094;27;20046;-65
2023/12/03 01:19:15;;;;;;;3.55;1.60;;;1.40;99.90;;;;;;5117252;27;20039;-65
2023/12/03 01:21:40;;;;;;;3.80;1.83;;;1.30;99.90;;;;;;5118051;27;20051;-65
2023/12/03 01:24:06;;;;;;;3.40;1.40;;;1.40;99.90;;;;;;5136132;27;20047;-65
2023/12/03 01:26:31;;;;;;;5.13;1.33;;;1.40;99.90;;;;;;5116836;27;20039;-65
2023/12/03 01:28:58;;;;;;;4.38;1.70;;;1.30;99.90;;;;;;5101354;27;20042;-65
2023/12/03 01:31:23;;;;;;;3.95;1.58;;;1.30;99.90;;;;;;5117609;27;20051;-65
2023/12/03 01:33:49;;;;;;;5.25;1.85;;;1.30;99.90;;;;;;5117038;27;20043;-65
2023/12/03 01:36:15;;;;;;;4.72;1.92;;;1.30;99.90;;;;;;5117772;27;20039;-65
2023/12/03 01:38:40;;;;;;;5.60;1.52;;;1.20;99.90;;;;;;5118047;27;20031;-65
2023/12/03 01:41:06;;;;;;;5.00;2.00;;;1.20;99.90;;;;;;5100661;27;20039;-65
2023/12/03 01:43:32;;;;;;;4.15;1.92;;;1.10;99.90;;;;;;5117338;27;20039;-65
2023/12/03 01:45:58;;;;;;;5.97;1.80;;;1.20;99.90;;;;;;5117808;27;20042;-65
2023/12/03 01:48:25;;;;;;;3.47;1.50;;;1.30;99.90;;;;;;5117000;27;20441;-65
2023/12/03 01:50:51;;;;;;;3.67;1.50;;;1.20;99.90;;;;;;5117506;27;20027;-65
2023/12/03 01:53:18;;;;;;;5.95;1.77;;;1.10;99.90;;;;;;5117110;27;20039;-64
2023/12/03 01:55:44;;;;;;;4.78;1.92;;;1.10;99.90;;;;;;5102045;27;20054;-65
2023/12/03 01:58:10;;;;;;;5.32;1.90;;;1.20;99.90;;;;;;5134415;27;20047;-65
2023/12/03 02:00:36;;;;;;;4.57;1.75;;;1.10;99.90;;;;;;5121081;27;20050;-65
2023/12/03 02:03:01;;;;;;;4.80;1.80;;;1.20;99.90;;;;;;5117581;27;20075;-65
2023/12/03 02:05:27;;;;;;;5.30;1.98;;;1.20;99.90;;;;;;5100137;27;20038;-65
2023/12/03 02:07:53;;;;;;;4.13;1.45;;;1.10;99.90;;;;;;5118515;27;20035;-65
2023/12/03 02:10:19;;;;;;;4.15;1.85;;;1.20;99.90;;;;;;5134454;27;20083;-65
2023/12/03 02:12:45;;;;;;;5.63;1.63;;;1.10;99.90;;;;;;5134353;27;20041;-65
2023/12/03 02:15:11;;;;;;;4.15;1.83;;;1.20;99.90;;;;;;5134789;27;20135;-65
2023/12/03 02:17:36;;;;;;;4.13;1.77;;;1.20;99.90;;;;;;5117657;27;20051;-65
2023/12/03 02:20:03;;;;;;;4.65;1.95;;;1.00;99.90;;;;;;5100563;27;20039;-65
2023/12/03 02:22:29;;;;;;;5.68;2.35;;;1.10;99.90;;;;;;5116101;27;20104;-65
2023/12/03 02:24:55;;;;;;;3.80;1.60;;;1.10;99.90;;;;;;5116803;27;20039;-65
2023/12/03 02:27:20;;;;;;;4.20;1.80;;;1.10;99.90;;;;;;5099969;27;20122;-65
2023/12/03 02:29:47;;;;;;;4.93;1.92;;;0.90;99.90;;;;;;5099232;27;20071;-65
2023/12/03 02:32:13;;;;;;;4.20;1.95;;;1.00;99.90;;;;;;5100104;27;20462;-65
2023/12/03 02:34:39;;;;;;;4.50;1.98;;;0.90;99.90;;;;;;5116458;27;20118;-65
2023/12/03 02:37:05;;;;;;;4.72;2.00;;;0.90;99.90;;;;;;5099351;27;20038;-65
2023/12/03 02:39:30;;;;;;;4.10;1.65;;;0.90;99.90;;;;;;5116285;27;20050;-65
2023/12/03 02:41:56;;;;;;;4.25;1.92;;;0.90;99.90;;;;;;5115666;27;20087;-65
2023/12/03 02:44:21;;;;;;;5.72;1.90;;;0.80;99.90;;;;;;5115953;27;20046;-65
2023/12/03 02:46:47;;;;;;;3.92;1.60;;;0.70;99.90;;;;;;5116441;27;20046;-65
2023/12/03 02:49:13;;;;;;;4.47;1.70;;;0.80;99.90;;;;;;5116407;27;20401;-65
2023/12/03 02:51:38;;;;;;;4.00;1.95;;;0.80;99.90;;;;;;5121438;27;20127;-65
2023/12/03 02:54:04;;;;;;;3.97;1.73;;;0.70;99.90;;;;;;5117767;27;20039;-65
2023/12/03 02:56:31;;;;;;;4.45;2.00;;;0.70;99.90;;;;;;5112413;28;20054;-65
2023/12/03 02:58:57;;;;;;;4.25;1.80;;;0.70;99.90;;;;;;5112190;28;20032;-65
2023/12/03 03:01:22;;;;;;;7.78;2.40;;;0.70;99.90;;;;;;5112801;28;20123;-65
2023/12/03 03:03:48;;;;;;;7.80;2.42;;;0.60;99.90;;;;;;5112074;28;20051;-65
2023/12/03 03:06:13;;;;;;;5.47;2.40;;;0.60;99.90;;;;;;5095355;28;20043;-65
2023/12/03 03:08:39;;;;;;;4.18;1.90;;;0.60;99.90;;;;;;5112288;28;20392;-65
2023/12/03 03:11:05;;;;;;;5.22;1.80;;;0.50;99.90;;;;;;5113507;28;20127;-65
2023/12/03 03:13:31;;;;;;;4.47;1.92;;;0.60;99.90;;;;;;5112036;28;20047;-65
2023/12/03 03:15:56;;;;;;;4.03;1.83;;;0.50;99.90;;;;;;5112825;28;20046;-65
2023/12/03 03:18:22;;;;;;;4.85;2.10;;;0.50;99.90;;;;;;5110975;28;20043;-65
2023/12/03 03:20:47;;;;;;;4.78;1.98;;;0.60;99.90;;;;;;5112388;28;20038;-65
2023/12/03 03:23:13;;;;;;;5.82;2.40;;;0.60;99.90;;;;;;5112388;28;20047;-65
2023/12/03 03:25:39;;;;;;;4.47;2.20;;;0.50;99.90;;;;;;5111297;28;20115;-65
2023/12/03 03:28:05;;;;;;;7.13;2.72;;;0.40;99.90;;;;;;5112215;28;20032;-65
2023/12/03 03:30:30;;;;;;;7.95;3.97;;;0.40;99.90;;;;;;5111840;28;20085;-65
2023/12/03 03:32:56;;;;;;;11.13;4.70;;;0.40;99.90;;;;;;5111910;28;20046;-65
2023/12/03 03:35:21;;;;;;;23.85;10.23;;;0.30;99.90;;;;;;5112052;28;20541;-65
2023/12/03 03:37:47;;;;;;;16.50;7.63;;;0.40;99.90;;;;;;5111884;28;20080;-65
2023/12/03 03:40:13;;;;;;;18.33;8.23;;;0.30;99.90;;;;;;5111273;28;20039;-66
2023/12/03 03:42:38;;;;;;;9.15;5.30;;;0.30;99.90;;;;;;5111754;28;20036;-65
2023/12/03 03:45:05;;;;;;;5.93;2.90;;;0.30;99.90;;;;;;5112162;28;20039;-65
2023/12/03 03:47:36;;;;;;;6.72;3.17;;;0.20;99.90;;;;;;5110721;28;20039;-65
2023/12/03 03:50:03;;;;;;;5.15;2.10;;;0.20;99.90;;;;;;5112245;28;20048;-65
2023/12/03 03:52:29;;;;;;;5.63;2.50;;;0.30;99.90;;;;;;5111705;28;20100;-65
2023/12/03 03:54:55;;;;;;;7.07;2.80;;;0.20;99.90;;;;;;5111250;28;20195;-65
2023/12/03 03:57:20;;;;;;;5.55;2.20;;;0.20;99.90;;;;;;5111478;28;20055;-65
2023/12/03 03:59:46;;;;;;;7.38;3.30;;;0.20;99.90;;;;;;5112676;28;20408;-65
2023/12/03 04:02:12;;;;;;;5.88;2.65;;;0.20;99.90;;;;;;5111050;28;20523;-65
2023/12/03 04:04:38;;;;;;;8.02;3.72;;;0.10;99.90;;;;;;5113022;28;20051;-65
2023/12/03 04:07:04;;;;;;;9.25;4.38;;;0.20;99.90;;;;;;5110929;28;20044;-65
2023/12/03 04:09:30;;;;;;;6.97;3.13;;;0.20;99.90;;;;;;5111369;28;20074;-65
2023/12/03 04:11:56;;;;;;;6.63;2.63;;;0.10;99.90;;;;;;5094845;28;20039;-65
2023/12/03 04:14:21;;;;;;;5.90;2.65;;;0.00;99.90;;;;;;5110735;28;20042;-65
2023/12/03 04:16:47;;;;;;;5.53;2.63;;;0.00;99.90;;;;;;5111166;28;20381;-65
2023/12/03 04:19:13;;;;;;;6.15;2.67;;;0.00;99.90;;;;;;5111650;28;20062;-65
2023/12/03 04:21:39;;;;;;;5.15;2.17;;;0.10;99.90;;;;;;5110764;28;20065;-65
2023/12/03 04:24:05;;;;;;;5.25;2.50;;;0.10;99.90;;;;;;5111652;28;20051;-65
2023/12/03 04:26:31;;;;;;;5.53;2.92;;;0.00;99.90;;;;;;5110876;28;20043;-65
2023/12/03 04:28:56;;;;;;;6.03;2.80;;;0.00;99.90;;;;;;5110512;28;20061;-65
2023/12/03 04:31:26;;;;;;;5.90;2.88;;;0.10;99.90;;;;;;5111269;28;20043;-64
2023/12/03 04:33:54;;;;;;;7.15;3.38;;;0.00;99.90;;;;;;5111020;28;20058;-65
2023/12/03 04:36:23;;;;;;;6.30;2.97;;;0.20;99.90;;;;;;5110279;28;20043;-65
2023/12/03 04:38:55;;;;;;;7.00;3.80;;;0.10;99.90;;;;;;5111410;28;20362;-65
2023/12/03 04:41:21;;;;;;;6.57;3.03;;;0.30;99.90;;;;;;5110939;28;20050;-65
2023/12/03 04:43:47;;;;;;;7.28;3.72;;;0.20;99.90;;;;;;5110411;28;20043;-65
2023/12/03 04:46:13;;;;;;;8.10;4.97;;;0.20;99.90;;;;;;5112172;28;20043;-65
2023/12/03 04:48:40;;;;;;;8.05;4.43;;;0.20;99.90;;;;;;5111279;28;20028;-65
2023/12/03 04:51:06;;;;;;;7.88;3.97;;;0.20;99.90;;;;;;5093511;28;20531;-65
2023/12/03 04:53:31;;;;;;;7.72;4.50;;;0.30;99.90;;;;;;5110974;28;20035;-65
2023/12/03 04:55:57;;;;;;;9.20;4.75;;;0.20;99.90;;;;;;5113954;28;20520;-65
2023/12/03 04:58:23;;;;;;;8.85;4.70;;;0.20;99.90;;;;;;5120052;28;20102;-65
2023/12/03 05:00:48;;;;;;;8.13;4.30;;;0.20;99.90;;;;;;5114150;28;20043;-65
2023/12/03 05:03:14;;;;;;;9.05;5.10;;;0.20;99.90;;;;;;5114732;28;20036;-65
2023/12/03 05:05:40;;;;;;;9.27;5.50;;;0.20;99.90;;;;;;5114866;28;20035;-65
2023/12/03 05:08:06;;;;;;;11.10;5.75;;;0.30;99.90;;;;;;5114599;28;20491;-65
2023/12/03 05:10:32;;;;;;;10.10;5.25;;;0.30;99.90;;;;;;5131503;28;20047;-65
2023/12/03 05:12:57;;;;;;;9.05;5.30;;;0.10;99.90;;;;;;5114907;28;20099;-65
2023/12/03 05:15:23;;;;;;;10.43;5.45;;;0.10;99.90;;;;;;5097424;28;20053;-65
2023/12/03 05:17:49;;;;;;;11.35;5.35;;;0.30;99.90;;;;;;5113214;28;20492;-65
2023/12/03 05:20:14;;;;;;;10.10;5.32;;;0.10;99.90;;;;;;5131312;28;20035;-65
2023/12/03 05:22:40;;;;;;;12.75;6.35;;;0.20;99.90;;;;;;5131266;28;20118;-65
2023/12/03 05:25:06;;;;;;;9.63;6.43;;;0.20;99.90;;;;;;5130590;28;20050;-65
2023/12/03 05:27:32;;;;;;;10.93;6.55;;;0.10;99.90;;;;;;5127547;28;20489;-65
2023/12/03 05:29:58;;;;;;;11.68;6.88;;;0.30;99.90;;;;;;5114559;28;20043;-65
2023/12/03 05:32:24;;;;;;;12.07;6.13;;;0.30;99.90;;;;;;5116499;28;20035;-65
2023/12/03 05:34:49;;;;;;;12.88;6.97;;;0.30;99.90;;;;;;5130826;28;20043;-65
2023/12/03 05:37:15;;;;;;;11.25;6.38;;;0.30;99.90;;;;;;5114427;28;20399;-65
2023/12/03 05:39:41;;;;;;;12.52;6.35;;;0.30;99.90;;;;;;5113655;27;20480;-65
2023/12/03 05:42:07;;;;;;;11.40;6.85;;;0.30;99.90;;;;;;5117956;27;20042;-65
2023/12/03 05:44:33;;;;;;;9.80;6.03;;;0.10;99.90;;;;;;5117660;27;20042;-65
2023/12/03 05:47:00;;;;;;;9.80;6.18;;;0.30;99.90;;;;;;5117061;27;20039;-65
2023/12/03 05:49:26;;;;;;;11.07;6.60;;;0.20;99.90;;;;;;5100656;27;20039;-65
2023/12/03 05:51:52;;;;;;;11.18;6.88;;;0.10;99.90;;;;;;5118652;27;20107;-65
2023/12/03 05:54:17;;;;;;;12.35;7.28;;;0.10;99.90;;;;;;5134210;27;20063;-65
2023/12/03 05:56:44;;;;;;;12.43;6.95;;;0.20;99.90;;;;;;5134276;27;20054;-65
2023/12/03 05:59:12;;;;;;;13.75;6.88;;;0.10;99.90;;;;;;5116383;27;20050;-65
2023/12/03 06:01:38;;;;;;;19.10;8.75;;;0.20;99.90;;;;;;5116601;27;20075;-65
2023/12/03 06:04:07;;;;;;;36.65;11.63;;;0.10;99.90;;;;;;5117579;27;20096;-65
2023/12/03 06:06:36;;;;;;;27.73;9.52;;;0.30;99.90;;;;;;5116078;27;20051;-65
2023/12/03 06:09:06;;;;;;;43.65;10.75;;;0.30;99.90;;;;;;5117839;27;20391;-65
2023/12/03 06:11:32;;;;;;;94.07;18.75;;;0.30;99.90;;;;;;5116680;27;20043;-65
2023/12/03 06:13:59;;;;;;;68.78;17.35;;;0.20;99.90;;;;;;5116987;27;20121;-65
2023/12/03 06:16:29;;;;;;;74.40;16.65;;;0.30;99.90;;;;;;5136167;27;20049;-65
2023/12/03 06:18:56;;;;;;;58.78;12.15;;;0.30;99.90;;;;;;5128890;27;20099;-65
2023/12/03 06:21:22;;;;;;;32.67;9.35;;;0.20;99.90;;;;;;5116145;27;20047;-65
2023/12/03 06:23:48;;;;;;;63.85;13.57;;;0.10;99.90;;;;;;5116529;27;20385;-65
2023/12/03 06:26:13;;;;;;;45.10;11.43;;;0.10;99.90;;;;;;5117000;27;20468;-65
2023/12/03 06:28:39;;;;;;;56.15;14.10;;;0.10;99.90;;;;;;5115861;27;20117;-65
2023/12/03 06:31:06;;;;;;;29.13;9.55;;;0.00;99.90;;;;;;5100213;27;20043;-65
2023/12/03 06:33:32;;;;;;;22.13;8.63;;;0.00;99.90;;;;;;5116397;27;20488;-65
2023/12/03 06:35:57;;;;;;;26.05;9.82;;;0.00;99.90;;;;;;5116113;27;20047;-65
2023/12/03 06:38:23;;;;;;;40.60;11.07;;;0.10;99.90;;;;;;5116684;27;20039;-65
2023/12/03 06:40:49;;;;;;;38.03;11.38;;;-0.10;99.90;;;;;;5116630;27;20039;-65
2023/12/03 06:43:15;;;;;;;25.83;8.23;;;-0.10;99.90;;;;;;5114564;27;20035;-65
2023/12/03 06:45:41;;;;;;;22.20;8.77;;;-0.10;99.90;;;;;;5133725;27;20046;-65
2023/12/03 06:48:07;;;;;;;28.50;9.65;;;-0.10;99.90;;;;;;5133918;27;20035;-65
2023/12/03 06:50:33;;;;;;;64.78;18.70;;;-0.10;99.90;;;;;;5133856;27;20096;-65
2023/12/03 06:52:59;;;;;;;21.90;9.45;;;-0.10;99.90;;;;;;5132816;27;20043;-65
2023/12/03 06:55:25;;;;;;;46.90;12.48;;;-0.20;99.90;;;;;;5118448;27;20066;-65
2023/12/03 06:57:51;;;;;;;36.05;12.73;;;-0.20;99.90;;;;;;5115438;27;20511;-65
2023/12/03 07:00:17;;;;;;;35.97;11.55;;;-0.10;99.90;;;;;;5116683;27;20046;-65
2023/12/03 07:02:43;;;;;;;38.10;13.30;;;0.00;99.90;;;;;;5115999;27;20042;-65
2023/12/03 07:05:09;;;;;;;30.58;12.95;;;0.10;99.90;;;;;;5115824;27;20039;-65
2023/12/03 07:07:35;;;;;;;35.20;13.88;;;0.10;99.90;;;;;;5116099;27;20039;-65
2023/12/03 07:10:00;;;;;;;49.33;18.65;;;0.00;99.90;;;;;;5116531;27;20038;-65
2023/12/03 07:12:26;;;;;;;40.55;17.55;;;0.20;99.90;;;;;;5116219;27;20118;-65
2023/12/03 07:14:52;;;;;;;40.95;19.13;;;0.30;99.90;;;;;;5115843;27;20039;-65
2023/12/03 07:17:17;;;;;;;49.15;16.50;;;0.20;99.90;;;;;;5115581;27;20043;-65
2023/12/03 07:19:46;;;;;;;51.65;17.02;;;0.20;99.90;;;;;;5116250;27;20043;-65
2023/12/03 07:22:12;;;;;;;42.22;15.77;;;0.20;99.90;;;;;;5133944;27;20043;-65
2023/12/03 07:24:39;;;;;;;32.42;14.48;;;0.40;99.90;;;;;;5114520;27;20046;-64
2023/12/03 07:27:05;;;;;;;63.97;20.48;;;0.30;99.90;;;;;;5098955;27;20050;-65
2023/12/03 07:29:31;;;;;;;66.50;21.30;;;0.50;99.90;;;;;;5115470;27;20038;-65
2023/12/03 07:31:57;;;;;;;38.53;15.65;;;0.40;99.90;;;;;;5115095;27;20043;-65
2023/12/03 07:34:23;;;;;;;42.10;17.27;;;0.50;99.90;;;;;;5115436;27;20118;-64
2023/12/03 07:36:48;;;;;;;49.75;18.90;;;0.50;99.90;;;;;;5133844;27;20039;-64
2023/12/03 07:39:14;;;;;;;36.13;16.17;;;0.60;99.90;;;;;;5102010;27;20091;-64
2023/12/03 07:41:40;;;;;;;39.45;16.05;;;0.60;99.90;;;;;;5114976;27;20107;-64
2023/12/03 07:44:05;;;;;;;58.88;22.10;;;0.70;99.90;;;;;;5115804;27;20043;-65
2023/12/03 07:46:34;;;;;;;45.35;18.88;;;0.60;99.90;;;;;;5120908;27;20083;-64
2023/12/03 07:49:00;;;;;;;62.40;22.13;;;0.70;99.90;;;;;;5110462;27;20039;-65
2023/12/03 07:51:26;;;;;;;49.17;19.60;;;0.70;99.90;;;;;;5119519;27;20039;-65
2023/12/03 07:53:51;;;;;;;50.20;21.30;;;0.70;99.90;;;;;;5119558;27;20069;-64
2023/12/03 07:56:17;;;;;;;44.75;20.13;;;0.80;99.90;;;;;;5119577;27;20093;-64
2023/12/03 07:58:43;;;;;;;45.60;18.08;;;0.80;99.90;;;;;;5097832;27;20043;-64
2023/12/03 08:01:09;;;;;;;65.97;23.90;;;0.80;99.90;;;;;;5113675;27;20051;-64
2023/12/03 08:03:35;;;;;;;62.58;24.30;;;0.80;99.90;;;;;;5111264;27;20047;-64
2023/12/03 08:06:01;;;;;;;46.97;20.23;;;0.90;99.90;;;;;;5111472;27;20063;-65
2023/12/03 08:08:26;;;;;;;52.92;21.35;;;0.90;99.90;;;;;;5113740;27;20077;-64
2023/12/03 08:10:52;;;;;;;59.35;20.85;;;1.00;99.90;;;;;;5112744;27;20034;-65
2023/12/03 08:13:18;;;;;;;51.60;21.83;;;1.00;99.90;;;;;;5129657;27;20095;-65
2023/12/03 08:15:43;;;;;;;56.53;21.83;;;1.10;99.90;;;;;;5112620;27;20039;-65
2023/12/03 08:18:09;;;;;;;48.83;19.65;;;1.00;99.90;;;;;;5112404;27;20042;-65
2023/12/03 08:20:35;;;;;;;62.97;23.33;;;1.10;99.90;;;;;;5111690;27;20451;-65
2023/12/03 08:23:00;;;;;;;62.78;22.80;;;1.10;99.90;;;;;;5112686;27;20043;-65
2023/12/03 08:25:26;;;;;;;55.92;22.95;;;1.10;99.90;;;;;;5112002;28;20050;-65
2023/12/03 08:27:51;;;;;;;59.25;21.60;;;1.20;99.90;;;;;;5111501;27;20067;-65
2023/12/03 08:30:18;;;;;;;64.50;24.00;;;1.20;99.90;;;;;;5112348;27;20588;-65
2023/12/03 08:32:43;;;;;;;80.93;26.70;;;1.10;99.90;;;;;;5111931;27;20085;-65
2023/12/03 08:35:09;;;;;;;52.88;22.88;;;1.10;99.90;;;;;;5114700;27;20066;-65
2023/12/03 08:37:35;;;;;;;57.42;23.40;;;1.10;99.90;;;;;;5127722;27;20051;-65
2023/12/03 08:40:01;;;;;;;71.40;25.20;;;1.10;99.90;;;;;;5129532;27;20047;-65
2023/12/03 08:42:27;;;;;;;79.07;27.25;;;1.20;99.90;;;;;;5114777;28;20058;-65
2023/12/03 08:44:52;;;;;;;63.47;25.55;;;1.20;99.90;;;;;;5112452;28;20484;-64
2023/12/03 08:47:18;;;;;;;76.32;25.83;;;1.10;99.90;;;;;;5112022;28;20115;-64
2023/12/03 08:49:44;;;;;;;73.82;25.90;;;1.10;99.90;;;;;;5111390;28;20039;-64
2023/12/03 08:52:11;;;;;;;100.68;28.35;;;1.20;99.90;;;;;;5112205;28;20479;-65
2023/12/03 08:54:37;;;;;;;68.30;24.67;;;1.30;99.90;;;;;;5112481;28;20058;-65
2023/12/03 08:57:03;;;;;;;68.95;26.05;;;1.30;99.90;;;;;;5097592;28;20487;-65
2023/12/03 08:59:29;;;;;;;85.40;29.85;;;1.20;99.90;;;;;;5129165;28;20103;-66
2023/12/03 09:01:55;;;;;;;84.70;24.77;;;1.20;99.90;;;;;;5129089;28;20093;-65
2023/12/03 09:04:21;;;;;;;102.13;32.22;;;1.20;99.90;;;;;;5097950;28;20484;-64
2023/12/03 09:06:46;;;;;;;86.65;28.20;;;1.30;99.90;;;;;;5110179;28;20099;-65
2023/12/03 09:09:13;;;;;;;77.82;28.02;;;1.30;99.90;;;;;;5130126;28;20047;-64
2023/12/03 09:11:43;;;;;;;54.78;22.63;;;1.20;99.90;;;;;;5094214;28;20042;-65
2023/12/03 09:14:09;;;;;;;68.38;25.83;;;1.20;99.90;;;;;;5111839;27;20070;-65
2023/12/03 09:16:34;;;;;;;67.07;26.20;;;1.30;99.90;;;;;;5114867;27;20732;-65
2023/12/03 09:19:00;;;;;;;48.95;22.38;;;1.20;99.90;;;;;;5116182;27;20039;-64
2023/12/03 09:21:26;;;;;;;60.05;25.90;;;1.30;99.90;;;;;;5116053;27;20499;-65
2023/12/03 09:23:51;;;;;;;62.10;27.33;;;1.20;99.90;;;;;;5115392;27;20042;-64
2023/12/03 09:26:17;;;;;;;48.30;27.17;;;1.20;99.90;;;;;;5115367;27;20108;-64
2023/12/03 09:28:43;;;;;;;56.50;26.45;;;1.40;99.90;;;;;;5098655;27;20074;-64
2023/12/03 09:31:08;;;;;;;62.78;29.20;;;1.20;99.90;;;;;;5097888;27;20035;-64
2023/12/03 09:33:34;;;;;;;58.30;29.67;;;1.20;99.90;;;;;;5115113;27;20043;-63
2023/12/03 09:36:00;;;;;;;54.92;28.88;;;1.30;99.90;;;;;;5115707;27;20046;-64
2023/12/03 09:38:25;;;;;;;61.10;27.42;;;1.20;99.90;;;;;;5114928;27;20031;-64
2023/12/03 09:40:59;;;;;;;55.90;26.02;;;1.30;99.90;;;;;;5115540;27;20807;-64
2023/12/03 09:43:27;;;;;;;58.95;27.50;;;1.20;99.90;;;;;;5126067;27;20047;-63
2023/12/03 09:45:56;;;;;;;51.42;28.73;;;1.30;99.90;;;;;;5114432;27;20046;-64
2023/12/03 09:48:24;;;;;;;54.40;27.75;;;1.40;99.90;;;;;;5118761;27;20039;-64
2023/12/03 09:50:52;;;;;;;50.28;26.10;;;1.40;99.90;;;;;;5114842;27;20039;-64
2023/12/03 09:53:22;;;;;;;51.25;26.08;;;1.30;99.90;;;;;;5116572;27;20126;-64
2023/12/03 09:55:49;;;;;;;52.97;25.13;;;1.40;99.90;;;;;;5116990;27;20109;-64
2023/12/03 09:58:16;;;;;;;49.08;27.08;;;1.30;99.90;;;;;;5116898;27;20066;-64
2023/12/03 10:00:42;;;;;;;47.33;24.60;;;1.50;99.90;;;;;;5116474;27;20084;-64
2023/12/03 10:03:08;;;;;;;48.05;25.83;;;1.50;99.90;;;;;;5117770;27;20038;-65
2023/12/03 10:05:34;;;;;;;43.20;24.92;;;1.50;99.90;;;;;;5117608;27;20125;-65
2023/12/03 10:08:02;;;;;;;49.88;24.63;;;1.40;99.90;;;;;;5117227;27;20047;-64
2023/12/03 10:10:34;;;;;;;46.58;25.23;;;1.50;99.90;;;;;;5100219;27;20042;-65
2023/12/03 10:13:03;;;;;;;48.85;24.63;;;1.50;99.90;;;;;;5129128;27;20046;-65
2023/12/03 10:15:29;;;;;;;45.10;25.52;;;1.50;99.90;;;;;;5114847;27;20043;-65
2023/12/03 10:17:55;;;;;;;47.90;25.38;;;1.60;99.90;;;;;;5130822;27;20096;-65
2023/12/03 10:20:26;;;;;;;50.38;25.23;;;1.50;99.90;;;;;;5110767;27;20108;-65
2023/12/03 10:22:55;;;;;;;41.47;23.63;;;1.50;99.90;;;;;;5083273;27;20371;-65
2023/12/03 10:25:32;;;;;;;47.67;24.85;;;1.70;99.90;;;;;;5114080;27;20047;-65
2023/12/03 10:28:01;;;;;;;45.85;23.02;;;1.70;99.90;;;;;;5094927;27;20061;-65
2023/12/03 10:30:27;;;;;;;38.45;23.25;;;1.60;99.90;;;;;;5114176;27;20039;-65
2023/12/03 10:32:55;;;;;;;38.80;22.90;;;1.70;99.90;;;;;;5113635;27;20405;-65
2023/12/03 10:35:24;;;;;;;43.30;23.98;;;1.70;99.90;;;;;;5113242;27;20047;-65
2023/12/03 10:37:50;;;;;;;43.53;24.33;;;1.70;99.90;;;;;;5113529;27;20049;-65
2023/12/03 10:40:18;;;;;;;38.60;22.35;;;1.70;99.90;;;;;;5096317;27;20047;-65
2023/12/03 10:42:44;;;;;;;39.60;23.88;;;1.80;99.90;;;;;;5097385;27;20035;-65
2023/12/03 10:45:12;;;;;;;47.53;25.48;;;1.80;99.90;;;;;;5113336;27;20050;-65
2023/12/03 10:47:39;;;;;;;39.35;24.25;;;1.80;99.90;;;;;;5114352;27;20039;-64
2023/12/03 10:50:06;;;;;;;39.72;21.27;;;1.80;99.90;;;;;;5117376;27;20081;-64
2023/12/03 10:52:33;;;;;;;42.40;22.10;;;1.90;99.90;;;;;;5133197;27;20043;-64
2023/12/03 10:54:59;;;;;;;39.60;23.00;;;2.00;99.90;;;;;;5132782;27;20070;-64
2023/12/03 10:57:33;;;;;;;35.63;21.20;;;1.90;99.90;;;;;;5101679;27;20613;-64
2023/12/03 11:00:05;;;;;;;39.22;22.40;;;2.10;99.90;;;;;;5116617;27;20055;-64
2023/12/03 11:02:38;;;;;;;37.78;21.10;;;2.00;99.90;;;;;;5133378;27;20428;-63
2023/12/03 11:05:06;;;;;;;38.65;21.63;;;2.10;99.90;;;;;;5106440;27;20126;-65
2023/12/03 11:07:33;;;;;;;38.78;23.25;;;2.10;99.90;;;;;;5115831;27;20043;-65
2023/12/03 11:09:59;;;;;;;37.95;21.95;;;2.10;99.90;;;;;;5098599;27;20039;-66
2023/12/03 11:12:25;;;;;;;43.20;23.27;;;2.00;99.90;;;;;;5116055;27;20357;-65
2023/12/03 11:14:52;;;;;;;39.80;21.17;;;2.10;99.90;;;;;;5116043;27;20118;-65
2023/12/03 11:17:25;;;;;;;36.75;20.52;;;2.00;99.90;;;;;;5114746;27;20099;-65
2023/12/03 11:19:56;;;;;;;44.00;24.33;;;2.00;99.90;;;;;;5116151;27;20403;-65
2023/12/03 11:22:44;;;;;;;37.17;21.38;;;1.90;99.90;;;;;;5115978;27;20039;-65
2023/12/03 11:25:17;;;;;;;37.97;21.50;;;1.90;99.90;;;;;;5098271;27;20075;-65
2023/12/03 11:27:45;;;;;;;36.85;19.45;;;1.90;99.90;;;;;;5115124;27;20078;-65
2023/12/03 11:30:11;;;;;;;30.70;19.55;;;1.80;99.90;;;;;;5132087;27;20050;-66
2023/12/03 11:32:38;;;;;;;35.67;18.77;;;1.80;99.90;;;;;;5132984;27;20039;-65
2023/12/03 11:35:12;;;;;;;30.27;18.70;;;1.60;99.90;;;;;;5131830;27;20372;-65
2023/12/03 11:37:41;;;;;;;32.35;18.27;;;1.60;99.90;;;;;;5131512;27;20078;-65
2023/12/03 11:40:12;;;;;;;32.05;17.80;;;1.50;99.90;;;;;;5132915;27;20084;-65
2023/12/03 11:42:44;;;;;;;34.80;18.25;;;1.50;99.90;;;;;;5132469;27;20039;-64
2023/12/03 11:45:25;;;;;;;30.52;17.85;;;1.50;99.90;;;;;;5131914;27;20046;-66
2023/12/03 11:48:06;;;;;;;28.38;16.67;;;1.50;99.90;;;;;;5132584;27;20535;-66
2023/12/03 11:50:37;;;;;;;28.95;16.45;;;1.40;99.90;;;;;;5115990;27;20039;-66
2023/12/03 11:53:04;;;;;;;37.20;17.27;;;1.50;99.90;;;;;;5132665;27;20027;-67
2023/12/03 11:55:33;;;;;;;27.58;17.13;;;1.50;99.90;;;;;;5115094;27;20039;-67
2023/12/03 11:57:59;;;;;;;30.10;17.48;;;1.40;99.90;;;;;;5132615;27;20143;-67
2023/12/03 12:00:24;;;;;;;32.58;18.08;;;1.40;99.90;;;;;;5132075;27;20092;-67
2023/12/03 12:02:51;;;;;;;33.22;18.90;;;1.40;99.90;;;;;;5130421;27;20043;-66
2023/12/03 12:05:18;;;;;;;33.70;18.92;;;1.40;99.90;;;;;;5114945;27;20031;-66
2023/12/03 12:07:55;;;;;;;30.50;18.45;;;1.50;99.90;;;;;;5097933;27;20500;-66
2023/12/03 12:10:21;;;;;;;37.83;19.10;;;1.50;99.90;;;;;;5133505;27;20046;-68
2023/12/03 12:12:47;;;;;;;35.00;18.50;;;1.50;99.90;;;;;;5120682;27;20035;-68
2023/12/03 12:15:12;;;;;;;35.30;18.30;;;1.50;99.90;;;;;;5114920;27;20050;-68
2023/12/03 12:17:38;;;;;;;32.88;19.88;;;1.60;99.90;;;;;;5114815;27;20124;-67
2023/12/03 12:20:04;;;;;;;38.38;20.05;;;1.60;99.90;;;;;;5124318;27;20142;-68
2023/12/03 12:22:30;;;;;;;37.13;20.98;;;1.70;99.90;;;;;;5115151;27;20432;-68
2023/12/03 12:24:56;;;;;;;33.80;18.88;;;1.60;99.90;;;;;;5115110;27;20092;-68
2023/12/03 12:27:21;;;;;;;34.38;17.48;;;1.60;99.90;;;;;;5113878;27;20122;-69
2023/12/03 12:29:47;;;;;;;35.78;20.00;;;1.60;99.90;;;;;;5133750;27;20112;-68
2023/12/03 12:32:13;;;;;;;33.75;17.65;;;1.70;99.90;;;;;;5128108;27;20039;-68
2023/12/03 12:34:39;;;;;;;30.75;18.45;;;1.70;99.90;;;;;;5131123;27;20491;-68
2023/12/03 12:37:06;;;;;;;33.53;19.20;;;1.70;99.90;;;;;;5132540;27;20092;-68
2023/12/03 12:39:33;;;;;;;37.72;19.63;;;1.80;99.90;;;;;;5131446;27;20050;-69
2023/12/03 12:41:59;;;;;;;29.70;17.10;;;1.90;99.90;;;;;;5132555;27;20042;-68